sensor_id;sensor_type;location;lat;lon;timestamp;pressure;altitude;pressure_sealevel;temperature;humidity
9690;BME280;4884;42.614;23.340;2022-08-04T00:00:13;25523.41;;;16.06;100.00
9690;BME280;4884;42.614;23.340;2022-08-04T00:02:55;28146.09;;;16.08;100.00
9690;BME280;4884;42.614;23.340;2022-08-04T00:05:43;27488.19;;;16.03;100.00
9690;BME280;4884;42.614;23.340;2022-08-04T00:10:54;25823.81;;;15.49;100.00
9690;BME280;4884;42.614;23.340;2022-08-04T00:13:25;29438.53;;;15.72;100.00
9690;BME280;4884;42.614;23.340;2022-08-04T00:15:57;32723.69;;;15.83;100.00
9690;BME280;4884;42.614;23.340;2022-08-04T00:18:26;27460.75;;;15.49;100.00
9690;BME280;4884;42.614;23.340;2022-08-04T00:20:56;32716.78;;;15.71;100.00
9690;BME280;4884;42.614;23.340;2022-08-04T00:23:25;34677.78;;;15.59;100.00
9690;BME280;4884;42.614;23.340;2022-08-04T00:25:52;27461.78;;;15.51;100.00
9690;BME280;4884;42.614;23.340;2022-08-04T00:28:18;22236.66;;;15.77;100.00
9690;BME280;4884;42.614;23.340;2022-08-04T00:30:43;20274.75;;;15.78;100.00
9690;BME280;4884;42.614;23.340;2022-08-04T00:33:09;23223.59;;;15.89;100.00
9690;BME280;4884;42.614;23.340;2022-08-04T00:35:37;28798.06;;;16.01;100.00
9690;BME280;4884;42.614;23.340;2022-08-04T00:38:03;39634.38;;;16.04;100.00
9690;BME280;4884;42.614;23.340;2022-08-04T00:48:40;47539.94;;;16.13;100.00
9690;BME280;4884;42.614;23.340;2022-08-04T00:51:21;43916.59;;;16.12;100.00
9690;BME280;4884;42.614;23.340;2022-08-04T00:59:21;36996.06;;;15.91;100.00
9690;BME280;4884;42.614;23.340;2022-08-04T01:02:05;46225.56;;;16.17;100.00
9690;BME280;4884;42.614;23.340;2022-08-04T01:04:44;47204.63;;;16.06;100.00
9690;BME280;4884;42.614;23.340;2022-08-04T01:13:40;32717.38;;;15.72;100.00
9690;BME280;4884;42.614;23.340;2022-08-04T01:16:16;23860.13;;;15.48;100.00
9690;BME280;4884;42.614;23.340;2022-08-04T01:19:02;19922.88;;;15.13;100.00
9690;BME280;4884;42.614;23.340;2022-08-04T01:22:16;15363.56;;;15.49;100.00
9690;BME280;4884;42.614;23.340;2022-08-04T01:30:17;5906.91;;;15.40;100.00
9690;BME280;4884;42.614;23.340;2022-08-04T01:33:03;5578.72;;;15.22;100.00
9690;BME280;4884;42.614;23.340;2022-08-04T01:35:37;6232.28;;;15.38;100.00
9690;BME280;4884;42.614;23.340;2022-08-04T01:40:36;10464.19;;;15.23;100.00
9690;BME280;4884;42.614;23.340;2022-08-04T01:43:03;15369.06;;;15.67;100.00
9690;BME280;4884;42.614;23.340;2022-08-04T01:45:29;13733.13;;;15.54;100.00
9690;BME280;4884;42.614;23.340;2022-08-04T01:47:56;14704.22;;;15.27;100.00
9690;BME280;4884;42.614;23.340;2022-08-04T01:50:22;15690.97;;;15.52;100.00
9690;BME280;4884;42.614;23.340;2022-08-04T01:52:52;13723.41;;;15.19;100.00
9690;BME280;4884;42.614;23.340;2022-08-04T01:55:18;12092.47;;;15.17;100.00
9690;BME280;4884;42.614;23.340;2022-08-04T01:57:45;12097.91;;;15.38;100.00
9690;BME280;4884;42.614;23.340;2022-08-04T02:00:14;14383.31;;;15.45;100.00
9690;BME280;4884;42.614;23.340;2022-08-04T02:02:40;13399.66;;;15.28;100.00
9690;BME280;4884;42.614;23.340;2022-08-04T02:05:09;15370.16;;;15.70;100.00
9690;BME280;4884;42.614;23.340;2022-08-04T02:11:13;14389.56;;;15.67;100.00
9690;BME280;4884;42.614;23.340;2022-08-04T02:14:27;7856.66;;;15.16;100.00
9690;BME280;4884;42.614;23.340;2022-08-04T02:21:33;5578.81;;;15.23;100.00
9690;BME280;4884;42.614;23.340;2022-08-04T02:24:06;15694.50;;;15.63;100.00
9690;BME280;4884;42.614;23.340;2022-08-04T02:26:34;23531.88;;;15.45;100.00
9690;BME280;4884;42.614;23.340;2022-08-04T02:29:12;16329.38;;;15.06;100.00
9690;BME280;4884;42.614;23.340;2022-08-04T02:31:47;17974.94;;;15.45;100.00
9690;BME280;4884;42.614;23.340;2022-08-04T02:36:45;14052.03;;;15.28;100.00
9690;BME280;4884;42.614;23.340;2022-08-04T02:39:18;13717.09;;;14.96;100.00
9690;BME280;4884;42.614;23.340;2022-08-04T02:41:46;15030.06;;;15.25;100.00
9690;BME280;4884;42.614;23.340;2022-08-04T02:44:12;17641.63;;;15.26;100.00
9690;BME280;4884;42.614;23.340;2022-08-04T02:46:40;19589.94;;;14.96;100.00
9690;BME280;4884;42.614;23.340;2022-08-04T02:49:07;18286.06;;;15.01;100.00
9690;BME280;4884;42.614;23.340;2022-08-04T02:51:44;17970.28;;;15.32;100.00
9690;BME280;4884;42.614;23.340;2022-08-04T02:54:14;21237.66;;;15.33;100.00
9690;BME280;4884;42.614;23.340;2022-08-04T02:56:43;17313.75;;;15.22;100.00
9690;BME280;4884;42.614;23.340;2022-08-04T02:59:11;12411.06;;;14.88;100.00
9690;BME280;4884;42.614;23.340;2022-08-04T03:01:37;10788.19;;;15.15;100.00
9690;BME280;4884;42.614;23.340;2022-08-04T03:04:21;13402.59;;;15.38;100.00
9690;BME280;4884;42.614;23.340;2022-08-04T03:15:57;23190.84;;;15.13;100.00
9690;BME280;4884;42.614;23.340;2022-08-04T03:21:20;11109.22;;;14.94;100.00
9690;BME280;4884;42.614;23.340;2022-08-04T03:34:02;46.50;;;14.73;100.00
9690;BME280;4884;42.614;23.340;2022-08-04T03:42:38;11434.06;;;14.90;100.00
9690;BME280;4884;42.614;23.340;2022-08-04T03:45:33;13724.81;;;15.24;100.00
9690;BME280;4884;42.614;23.340;2022-08-04T03:51:22;19925.41;;;15.19;100.00
9690;BME280;4884;42.614;23.340;2022-08-04T03:57:22;21570.31;;;15.47;100.00
9690;BME280;4884;42.614;23.340;2022-08-04T04:04:59;16008.41;;;15.23;100.00
9690;BME280;4884;42.614;23.340;2022-08-04T04:10:24;6558.34;;;15.41;100.00
9690;BME280;4884;42.614;23.340;2022-08-04T04:13:25;12754.66;;;15.55;100.00
9690;BME280;4884;42.614;23.340;2022-08-04T04:35:36;-2548.03;;;16.16;100.00
9690;BME280;4884;42.614;23.340;2022-08-04T04:44:26;7229.13;;;16.52;100.00
9690;BME280;4884;42.614;23.340;2022-08-04T04:47:32;14092.50;;;16.70;100.00
9690;BME280;4884;42.614;23.340;2022-08-04T04:50:13;23253.72;;;16.59;100.00
9690;BME280;4884;42.614;23.340;2022-08-04T04:52:54;23595.09;;;16.90;100.00
9690;BME280;4884;42.614;23.340;2022-08-04T04:55:25;16059.34;;;16.84;100.00
9690;BME280;4884;42.614;23.340;2022-08-04T04:57:55;7236.22;;;16.92;100.00
9690;BME280;4884;42.614;23.340;2022-08-04T05:03:38;-7427.50;;;16.73;100.00
9690;BME280;4884;42.614;23.340;2022-08-04T05:06:27;-2872.34;;;16.84;100.00
9690;BME280;4884;42.614;23.340;2022-08-04T05:09:16;-1243.84;;;16.87;100.00
9690;BME280;4884;42.614;23.340;2022-08-04T05:14:48;-9705.72;;;17.01;100.00
9690;BME280;4884;42.614;23.340;2022-08-04T05:17:22;-11009.41;;;17.15;100.00
9690;BME280;4884;42.614;23.340;2022-08-04T05:22:51;-11012.47;;;17.41;100.00
9690;BME280;4884;42.614;23.340;2022-08-04T05:25:22;-11012.94;;;17.46;100.00
9690;BME280;4884;42.614;23.340;2022-08-04T05:28:02;-7106.59;;;17.53;100.00
9690;BME280;4884;42.614;23.340;2022-08-04T05:30:33;-3849.13;;;17.38;100.00
9690;BME280;4884;42.614;23.340;2022-08-04T05:33:03;-7755.50;;;17.17;100.00
9690;BME280;4884;42.614;23.340;2022-08-04T05:35:53;-11011.13;;;17.30;100.00
9690;BME280;4884;42.614;23.340;2022-08-04T05:38:22;-11010.81;;;17.27;100.00
9690;BME280;4884;42.614;23.340;2022-08-04T05:40:51;-10679.19;;;16.86;100.00
9690;BME280;4884;42.614;23.340;2022-08-04T05:43:17;-11009.66;;;17.17;100.00
9690;BME280;4884;42.614;23.340;2022-08-04T05:45:44;-11013.47;;;17.50;100.00
9690;BME280;4884;42.614;23.340;2022-08-04T05:48:13;-6780.97;;;17.53;100.00
9690;BME280;4884;42.614;23.340;2022-08-04T05:50:39;-3196.66;;;18.19;100.00
9690;BME280;4884;42.614;23.340;2022-08-04T05:53:05;-2870.44;;;18.15;100.00
9690;BME280;4884;42.614;23.340;2022-08-04T05:55:31;-258.69;;;18.25;100.00
9690;BME280;4884;42.614;23.340;2022-08-04T05:57:58;5623.41;;;18.21;100.00
9690;BME280;4884;42.614;23.340;2022-08-04T06:00:26;9563.34;;;18.85;100.00
9690;BME280;4884;42.614;23.340;2022-08-04T06:02:53;16779.03;;;18.83;100.00
9690;BME280;4884;42.614;23.340;2022-08-04T06:05:21;17760.19;;;18.72;100.00
9690;BME280;4884;42.614;23.340;2022-08-04T06:07:47;16787.47;;;19.09;100.00
9690;BME280;4884;42.614;23.340;2022-08-04T06:10:12;19766.16;;;19.66;100.00
9690;BME280;4884;42.614;23.340;2022-08-04T06:12:48;28668.66;;;19.85;100.00
9690;BME280;4884;42.614;23.340;2022-08-04T06:15:19;42889.78;;;20.01;100.00
9690;BME280;4884;42.614;23.340;2022-08-04T06:17:48;61195.47;;;20.51;100.00
9690;BME280;4884;42.614;23.340;2022-08-04T06:20:15;74215.44;;;20.63;100.00
9690;BME280;4884;42.614;23.340;2022-08-04T06:22:43;104805.94;;;21.05;100.00
9690;BME280;4884;42.614;23.340;2022-08-04T06:25:11;143351.16;;;20.90;100.00
9690;BME280;4884;42.614;23.340;2022-08-04T06:27:38;122243.88;;;20.48;100.00
9690;BME280;4884;42.614;23.340;2022-08-04T06:30:05;113780.69;;;20.36;100.00
9690;BME280;4884;42.614;23.340;2022-08-04T06:32:35;130397.94;;;20.64;100.00
9690;BME280;4884;42.614;23.340;2022-08-04T06:35:05;118582.41;;;20.76;100.00
9690;BME280;4884;42.614;23.340;2022-08-04T06:37:31;99699.19;;;20.71;100.00
9690;BME280;4884;42.614;23.340;2022-08-04T06:39:59;106791.91;;;20.85;100.00
9690;BME280;4884;42.614;23.340;2022-08-04T06:42:26;90674.53;;;21.00;100.00
9690;BME280;4884;42.614;23.340;2022-08-04T06:44:57;124641.25;;;22.27;100.00
9690;BME280;4884;42.614;23.340;2022-08-04T06:47:23;160732.28;;;23.51;100.00
9690;BME280;4884;42.614;23.340;2022-08-04T06:49:52;160515.66;;;22.69;100.00
9690;BME280;4884;42.614;23.340;2022-08-04T06:52:19;160378.09;;;22.18;100.00
9690;BME280;4884;42.614;23.340;2022-08-04T06:54:46;160228.34;;;21.61;100.00
9690;BME280;4884;42.614;23.340;2022-08-04T06:57:17;155201.41;;;21.27;100.00
9690;BME280;4884;42.614;23.340;2022-08-04T06:59:46;150903.31;;;21.16;100.00
9690;BME280;4884;42.614;23.340;2022-08-04T07:02:15;129779.09;;;20.91;100.00
9690;BME280;4884;42.614;23.340;2022-08-04T07:04:42;118964.84;;;20.99;100.00
9690;BME280;4884;42.614;23.340;2022-08-04T07:07:10;136208.03;;;20.85;100.00
9690;BME280;4884;42.614;23.340;2022-08-04T07:09:37;124378.25;;;21.00;100.00
9690;BME280;4884;42.614;23.340;2022-08-04T07:12:04;128763.81;;;20.92;100.00
9690;BME280;4884;42.614;23.340;2022-08-04T07:14:31;131132.41;;;20.90;100.00
9690;BME280;4884;42.614;23.340;2022-08-04T07:17:02;159324.00;;;21.77;100.00
9690;BME280;4884;42.614;23.340;2022-08-04T07:19:30;160342.69;;;22.04;100.00
9690;BME280;4884;42.614;23.340;2022-08-04T07:21:58;160398.59;;;22.25;100.00
9690;BME280;4884;42.614;23.340;2022-08-04T07:24:31;160639.69;;;23.16;100.00
9690;BME280;4884;42.614;23.340;2022-08-04T07:26:57;161020.00;;;24.59;100.00
9690;BME280;4884;42.614;23.340;2022-08-04T07:29:23;161245.13;;;25.44;100.00
9690;BME280;4884;42.614;23.340;2022-08-04T07:31:49;161464.88;;;26.26;100.00
9690;BME280;4884;42.614;23.340;2022-08-04T07:34:15;161365.16;;;25.89;100.00
9690;BME280;4884;42.614;23.340;2022-08-04T07:36:42;161422.53;;;26.11;100.00
9690;BME280;4884;42.614;23.340;2022-08-04T07:39:08;161485.31;;;26.34;100.00
9690;BME280;4884;42.614;23.340;2022-08-04T07:41:33;161388.44;;;25.98;100.00
9690;BME280;4884;42.614;23.340;2022-08-04T07:43:59;160961.34;;;24.37;100.00
9690;BME280;4884;42.614;23.340;2022-08-04T07:46:25;160951.78;;;24.34;100.00
9690;BME280;4884;42.614;23.340;2022-08-04T07:48:50;161335.19;;;25.78;100.00
9690;BME280;4884;42.614;23.340;2022-08-04T07:51:17;161417.06;;;26.08;100.00
9690;BME280;4884;42.614;23.340;2022-08-04T07:53:43;161180.94;;;25.20;100.00
9690;BME280;4884;42.614;23.340;2022-08-04T07:56:10;161193.28;;;25.24;100.00
9690;BME280;4884;42.614;23.340;2022-08-04T07:58:36;161376.19;;;25.93;100.00
9690;BME280;4884;42.614;23.340;2022-08-04T08:01:02;161335.19;;;25.78;100.00
9690;BME280;4884;42.614;23.340;2022-08-04T08:03:27;161242.38;;;25.43;100.00
9690;BME280;4884;42.614;23.340;2022-08-04T08:05:53;161081.38;;;24.82;100.00
9690;BME280;4884;42.614;23.340;2022-08-04T08:08:18;161090.94;;;24.86;100.00
9690;BME280;4884;42.614;23.340;2022-08-04T08:10:47;161026.84;;;24.62;100.00
9690;BME280;4884;42.614;23.340;2022-08-04T08:13:14;160921.81;;;24.22;100.00
9690;BME280;4884;42.614;23.340;2022-08-04T08:15:40;161007.75;;;24.55;100.00
9690;BME280;4884;42.614;23.340;2022-08-04T08:18:08;161105.94;;;24.92;100.00
9690;BME280;4884;42.614;23.340;2022-08-04T08:20:33;161155.00;;;25.10;100.00
9690;BME280;4884;42.614;23.340;2022-08-04T08:23:01;161220.56;;;25.35;100.00
9690;BME280;4884;42.614;23.340;2022-08-04T08:25:26;161241.03;;;25.42;100.00
9690;BME280;4884;42.614;23.340;2022-08-04T08:27:51;161392.53;;;25.99;100.00
9690;BME280;4884;42.614;23.340;2022-08-04T08:30:17;161537.19;;;26.54;100.00
9690;BME280;4884;42.614;23.340;2022-08-04T08:32:42;161753.06;;;27.35;100.00
9690;BME280;4884;42.614;23.340;2022-08-04T08:35:08;161880.09;;;27.82;100.00
9690;BME280;4884;42.614;23.340;2022-08-04T08:37:41;162134.38;;;28.78;97.70
9690;BME280;4884;42.614;23.340;2022-08-04T08:49:06;161904.72;;;27.92;92.08
9690;BME280;4884;42.614;23.340;2022-08-04T08:54:16;161900.66;;;27.90;89.12
9690;BME280;4884;42.614;23.340;2022-08-04T09:00:03;162172.69;;;28.92;78.54
9690;BME280;4884;42.614;23.340;2022-08-04T09:10:52;162647.41;;;30.70;72.67
9690;BME280;4884;42.614;23.340;2022-08-04T09:13:22;162661.13;;;30.75;69.62
9690;BME280;4884;42.614;23.340;2022-08-04T09:18:46;162740.53;;;31.05;60.18
9690;BME280;4884;42.614;23.340;2022-08-04T09:27:09;163130.88;;;32.51;46.30
9690;BME280;4884;42.614;23.340;2022-08-04T09:30:04;163285.81;;;33.09;43.62
9690;BME280;4884;42.614;23.340;2022-08-04T09:35:56;162996.66;;;32.01;44.50
9690;BME280;4884;42.614;23.340;2022-08-04T09:49:35;163276.16;;;33.06;38.75
9690;BME280;4884;42.614;23.340;2022-08-04T09:54:51;163568.22;;;34.15;35.11
9690;BME280;4884;42.614;23.340;2022-08-04T10:00:03;163359.78;;;33.37;37.39
9690;BME280;4884;42.614;23.340;2022-08-04T10:02:37;163368.00;;;33.40;35.36
9690;BME280;4884;42.614;23.340;2022-08-04T10:05:07;163340.59;;;33.30;34.08
9690;BME280;4884;42.614;23.340;2022-08-04T10:10:30;163425.56;;;33.62;34.15
9690;BME280;4884;42.614;23.340;2022-08-04T10:13:08;163554.47;;;34.10;35.96
9690;BME280;4884;42.614;23.340;2022-08-04T10:18:47;163702.59;;;34.65;36.31
9690;BME280;4884;42.614;23.340;2022-08-04T10:29:28;163691.63;;;34.61;35.65
9690;BME280;4884;42.614;23.340;2022-08-04T10:32:32;163562.69;;;34.13;35.11
9690;BME280;4884;42.614;23.340;2022-08-04T10:35:22;163192.56;;;32.74;35.67
9690;BME280;4884;42.614;23.340;2022-08-04T10:40:24;163428.38;;;33.63;34.16
9690;BME280;4884;42.614;23.340;2022-08-04T10:48:39;163861.78;;;35.25;33.25
9690;BME280;4884;42.614;23.340;2022-08-04T10:53:33;163499.63;;;33.89;35.46
9690;BME280;4884;42.614;23.340;2022-08-04T10:56:08;163454.41;;;33.72;35.79
9690;BME280;4884;42.614;23.340;2022-08-04T10:58:58;163606.63;;;34.29;30.24
9690;BME280;4884;42.614;23.340;2022-08-04T11:01:39;163529.78;;;34.01;33.91
9690;BME280;4884;42.614;23.340;2022-08-04T11:07:31;163476.34;;;33.81;34.99
9690;BME280;4884;42.614;23.340;2022-08-04T11:09:58;163595.63;;;34.25;35.94
9690;BME280;4884;42.614;23.340;2022-08-04T11:12:25;163612.13;;;34.31;34.32
9690;BME280;4884;42.614;23.340;2022-08-04T11:15:03;163872.75;;;35.29;32.18
9690;BME280;4884;42.614;23.340;2022-08-04T11:17:34;163503.75;;;33.91;34.18
9690;BME280;4884;42.614;23.340;2022-08-04T11:23:10;163795.94;;;35.00;34.11
9690;BME280;4884;42.614;23.340;2022-08-04T11:25:57;163627.16;;;34.37;35.45
9690;BME280;4884;42.614;23.340;2022-08-04T11:31:03;163717.75;;;34.71;31.68
9690;BME280;4884;42.614;23.340;2022-08-04T11:33:43;163979.81;;;35.69;31.86
9690;BME280;4884;42.614;23.340;2022-08-04T11:36:18;163376.22;;;33.43;35.07
9690;BME280;4884;42.614;23.340;2022-08-04T11:39:05;162866.53;;;31.52;36.55
9690;BME280;4884;42.614;23.340;2022-08-04T11:41:52;162721.38;;;30.98;37.81
9690;BME280;4884;42.614;23.340;2022-08-04T11:44:42;162498.25;;;30.14;38.13
9690;BME280;4884;42.614;23.340;2022-08-04T11:47:28;162500.97;;;30.15;42.34
9690;BME280;4884;42.614;23.340;2022-08-04T11:50:21;162416.16;;;29.84;39.93
9690;BME280;4884;42.614;23.340;2022-08-04T11:52:53;162944.59;;;31.82;39.96
9690;BME280;4884;42.614;23.340;2022-08-04T11:55:20;163389.91;;;33.48;35.71
9690;BME280;4884;42.614;23.340;2022-08-04T11:57:47;163318.69;;;33.22;34.50
9690;BME280;4884;42.614;23.340;2022-08-04T12:00:15;163437.91;;;33.66;35.60
9690;BME280;4884;42.614;23.340;2022-08-04T12:03:07;163218.59;;;32.84;34.88
9690;BME280;4884;42.614;23.340;2022-08-04T12:06:09;163697.13;;;34.63;32.20
9690;BME280;4884;42.614;23.340;2022-08-04T12:11:19;163750.66;;;34.83;33.64
9690;BME280;4884;42.614;23.340;2022-08-04T12:14:33;163820.56;;;35.09;31.25
9690;BME280;4884;42.614;23.340;2022-08-04T12:17:02;163391.31;;;33.49;35.63
9690;BME280;4884;42.614;23.340;2022-08-04T12:19:30;163529.78;;;34.01;33.53
9690;BME280;4884;42.614;23.340;2022-08-04T12:22:00;163177.50;;;32.69;34.13
9690;BME280;4884;42.614;23.340;2022-08-04T12:24:34;163472.22;;;33.79;34.15
9690;BME280;4884;42.614;23.340;2022-08-04T12:27:09;163329.63;;;33.26;34.14
9690;BME280;4884;42.614;23.340;2022-08-04T12:29:39;163240.53;;;32.92;33.74
9690;BME280;4884;42.614;23.340;2022-08-04T12:35:19;162861.06;;;31.50;36.05
9690;BME280;4884;42.614;23.340;2022-08-04T12:40:25;162707.72;;;30.93;38.08
9690;BME280;4884;42.614;23.340;2022-08-04T12:45:27;162873.38;;;31.55;36.39
9690;BME280;4884;42.614;23.340;2022-08-04T12:47:56;163006.22;;;32.05;37.48
9690;BME280;4884;42.614;23.340;2022-08-04T12:50:23;163232.28;;;32.89;35.87
9690;BME280;4884;42.614;23.340;2022-08-04T12:52:56;163214.47;;;32.83;35.34
9690;BME280;4884;42.614;23.340;2022-08-04T12:55:26;162956.88;;;31.86;36.38
9690;BME280;4884;42.614;23.340;2022-08-04T12:57:53;162814.44;;;31.33;37.64
9690;BME280;4884;42.614;23.340;2022-08-04T13:00:34;162987.03;;;31.97;37.52
9690;BME280;4884;42.614;23.340;2022-08-04T13:03:05;162740.53;;;31.05;37.77
9690;BME280;4884;42.614;23.340;2022-08-04T13:05:32;162562.59;;;30.38;39.50
9690;BME280;4884;42.614;23.340;2022-08-04T13:08:00;162557.13;;;30.36;39.28
9690;BME280;4884;42.614;23.340;2022-08-04T13:10:28;162381.88;;;29.71;40.08
9690;BME280;4884;42.614;23.340;2022-08-04T13:12:58;162388.81;;;29.73;40.79
9690;BME280;4884;42.614;23.340;2022-08-04T13:15:26;162223.22;;;29.11;41.72
9690;BME280;4884;42.614;23.340;2022-08-04T13:17:56;162179.50;;;28.95;41.88
9690;BME280;4884;42.614;23.340;2022-08-04T13:20:44;162294.41;;;29.38;39.73
9690;BME280;4884;42.614;23.340;2022-08-04T13:23:14;162152.16;;;28.85;40.81
9690;BME280;4884;42.614;23.340;2022-08-04T13:25:43;162540.66;;;30.30;39.59
9690;BME280;4884;42.614;23.340;2022-08-04T13:28:15;162918.56;;;31.72;36.13
9690;BME280;4884;42.614;23.340;2022-08-04T13:30:48;163100.72;;;32.40;34.99
9690;BME280;4884;42.614;23.340;2022-08-04T13:33:17;163324.16;;;33.24;33.58
9690;BME280;4884;42.614;23.340;2022-08-04T13:35:45;163395.38;;;33.50;32.78
9690;BME280;4884;42.614;23.340;2022-08-04T13:38:13;163374.81;;;33.43;35.06
9690;BME280;4884;42.614;23.340;2022-08-04T13:40:41;163337.81;;;33.29;35.16
9690;BME280;4884;42.614;23.340;2022-08-04T13:43:10;163250.13;;;32.96;34.79
9690;BME280;4884;42.614;23.340;2022-08-04T13:45:40;163247.34;;;32.95;33.66
9690;BME280;4884;42.614;23.340;2022-08-04T13:48:06;163184.31;;;32.71;34.43
9690;BME280;4884;42.614;23.340;2022-08-04T13:50:32;163292.63;;;33.12;33.95
9690;BME280;4884;42.614;23.340;2022-08-04T13:52:59;163222.72;;;32.86;31.68
9690;BME280;4884;42.614;23.340;2022-08-04T13:58:00;163243.22;;;32.93;30.74
9690;BME280;4884;42.614;23.340;2022-08-04T14:00:39;163288.53;;;33.10;33.33
9690;BME280;4884;42.614;23.340;2022-08-04T14:03:06;163359.78;;;33.37;32.48
9690;BME280;4884;42.614;23.340;2022-08-04T14:05:32;163162.41;;;32.63;32.31
9690;BME280;4884;42.614;23.340;2022-08-04T14:08:10;162929.50;;;31.76;32.04
9690;BME280;4884;42.614;23.340;2022-08-04T14:10:38;163121.25;;;32.48;30.33
9690;BME280;4884;42.614;23.340;2022-08-04T14:13:05;163118.56;;;32.47;32.71
9690;BME280;4884;42.614;23.340;2022-08-04T14:15:42;163333.75;;;33.27;33.35
9690;BME280;4884;42.614;23.340;2022-08-04T14:18:18;163311.84;;;33.19;30.97
9690;BME280;4884;42.614;23.340;2022-08-04T14:21:08;163299.47;;;33.14;32.74
9690;BME280;4884;42.614;23.340;2022-08-04T14:23:46;163251.47;;;32.97;32.99
9690;BME280;4884;42.614;23.340;2022-08-04T14:26:24;163351.56;;;33.34;31.70
9690;BME280;4884;42.614;23.340;2022-08-04T14:28:51;163226.78;;;32.87;31.87
9690;BME280;4884;42.614;23.340;2022-08-04T14:31:21;163176.13;;;32.68;31.07
9690;BME280;4884;42.614;23.340;2022-08-04T14:33:49;162954.13;;;31.85;33.81
9690;BME280;4884;42.614;23.340;2022-08-04T14:36:15;162748.72;;;31.08;32.98
9690;BME280;4884;42.614;23.340;2022-08-04T14:38:50;162613.22;;;30.57;33.17
9690;BME280;4884;42.614;23.340;2022-08-04T14:41:27;162882.94;;;31.58;33.46
9690;BME280;4884;42.614;23.340;2022-08-04T14:43:54;162954.13;;;31.85;31.72
9690;BME280;4884;42.614;23.340;2022-08-04T14:46:21;162903.50;;;31.66;34.85
9690;BME280;4884;42.614;23.340;2022-08-04T14:49:11;163036.34;;;32.16;31.05
9690;BME280;4884;42.614;23.340;2022-08-04T14:51:54;163085.63;;;32.34;33.46
9690;BME280;4884;42.614;23.340;2022-08-04T14:54:39;163025.41;;;32.12;33.69
9690;BME280;4884;42.614;23.340;2022-08-04T14:57:06;162967.84;;;31.90;35.50
9690;BME280;4884;42.614;23.340;2022-08-04T14:59:41;163058.25;;;32.24;34.49
9690;BME280;4884;42.614;23.340;2022-08-04T15:02:08;162850.09;;;31.46;36.44
9690;BME280;4884;42.614;23.340;2022-08-04T15:04:34;162915.78;;;31.71;34.52
9690;BME280;4884;42.614;23.340;2022-08-04T15:07:01;162776.13;;;31.18;36.09
9690;BME280;4884;42.614;23.340;2022-08-04T15:09:27;162747.38;;;31.08;38.50
9690;BME280;4884;42.614;23.340;2022-08-04T15:11:52;162766.56;;;31.15;36.95
9690;BME280;4884;42.614;23.340;2022-08-04T15:14:20;162769.25;;;31.16;38.28
9690;BME280;4884;42.614;23.340;2022-08-04T15:16:45;162729.59;;;31.01;37.45
9690;BME280;4884;42.614;23.340;2022-08-04T15:19:11;162769.25;;;31.16;36.94
9690;BME280;4884;42.614;23.340;2022-08-04T15:21:38;162815.81;;;31.33;37.02
9690;BME280;4884;42.614;23.340;2022-08-04T15:24:04;162792.56;;;31.25;36.23
9690;BME280;4884;42.614;23.340;2022-08-04T15:26:35;162709.06;;;30.93;37.13
9690;BME280;4884;42.614;23.340;2022-08-04T15:29:19;162384.69;;;29.72;38.60
9690;BME280;4884;42.614;23.340;2022-08-04T15:31:48;162346.38;;;29.57;37.97
9690;BME280;4884;42.614;23.340;2022-08-04T15:34:15;162157.63;;;28.87;38.99
9690;BME280;4884;42.614;23.340;2022-08-04T15:36:47;162041.41;;;28.43;41.19
9690;BME280;4884;42.614;23.340;2022-08-04T15:39:42;161964.84;;;28.14;41.41
9690;BME280;4884;42.614;23.340;2022-08-04T15:47:31;161769.47;;;27.41;42.62
9690;BME280;4884;42.614;23.340;2022-08-04T15:50:06;161722.97;;;27.23;45.76
9690;BME280;4884;42.614;23.340;2022-08-04T15:53:02;161716.09;;;27.21;45.23
9690;BME280;4884;42.614;23.340;2022-08-04T15:55:39;161635.56;;;26.91;48.40
9690;BME280;4884;42.614;23.340;2022-08-04T15:58:07;161709.28;;;27.18;48.25
9690;BME280;4884;42.614;23.340;2022-08-04T16:06:44;161444.41;;;26.19;55.65
9690;BME280;4884;42.614;23.340;2022-08-04T16:14:07;161531.72;;;26.52;54.90
9690;BME280;4884;42.614;23.340;2022-08-04T16:19:16;161654.69;;;26.98;53.56
9690;BME280;4884;42.614;23.340;2022-08-04T16:21:46;161716.09;;;27.21;53.08
9690;BME280;4884;42.614;23.340;2022-08-04T16:26:46;161758.53;;;27.37;52.25
9690;BME280;4884;42.614;23.340;2022-08-04T16:29:29;161892.38;;;27.87;52.49
9690;BME280;4884;42.614;23.340;2022-08-04T16:34:35;161918.41;;;27.97;52.90
9690;BME280;4884;42.614;23.340;2022-08-04T16:37:03;161810.41;;;27.56;54.66
9690;BME280;4884;42.614;23.340;2022-08-04T16:39:29;161813.16;;;27.57;56.80
9690;BME280;4884;42.614;23.340;2022-08-04T16:41:55;161687.44;;;27.10;57.87
9690;BME280;4884;42.614;23.340;2022-08-04T16:46:59;161621.88;;;26.85;59.24
9690;BME280;4884;42.614;23.340;2022-08-04T16:49:28;161605.50;;;26.79;58.78
9690;BME280;4884;42.614;23.340;2022-08-04T16:52:00;161559.06;;;26.62;62.77
9690;BME280;4884;42.614;23.340;2022-08-04T16:54:29;161370.72;;;25.91;65.88
9690;BME280;4884;42.614;23.340;2022-08-04T16:56:55;161326.97;;;25.75;71.41
9690;BME280;4884;42.614;23.340;2022-08-04T16:59:20;161298.34;;;25.64;72.25
9690;BME280;4884;42.614;23.340;2022-08-04T17:01:48;161245.13;;;25.44;74.45
9690;BME280;4884;42.614;23.340;2022-08-04T17:04:14;161089.56;;;24.85;77.43
9690;BME280;4884;42.614;23.340;2022-08-04T17:06:42;160985.88;;;24.46;83.51
9690;BME280;4884;42.614;23.340;2022-08-04T17:09:14;161055.47;;;24.73;82.15
9690;BME280;4884;42.614;23.340;2022-08-04T17:11:45;161050.00;;;24.70;83.67
9690;BME280;4884;42.614;23.340;2022-08-04T17:14:11;161114.09;;;24.95;74.37
9690;BME280;4884;42.614;23.340;2022-08-04T17:16:40;161155.00;;;25.10;71.76
9690;BME280;4884;42.614;23.340;2022-08-04T17:19:08;161168.69;;;25.15;71.87
9690;BME280;4884;42.614;23.340;2022-08-04T17:21:35;161150.97;;;25.08;69.44
9690;BME280;4884;42.614;23.340;2022-08-04T17:24:03;161125.03;;;24.99;72.34
9690;BME280;4884;42.614;23.340;2022-08-04T17:26:34;160953.19;;;24.34;77.31